Current Weather

Ronald Reagan Washington Ntl

Washington, Virginia (KDCA)

Report from: Tuesday, August 16, 2022 1:52 AM EDT
Current time: Tuesday, August 16, 2022 2:49 AM EDT

Nearby weather
Weather history
Weather forecast

Temperature20.6°C (69.1°F)
Dew point17.2°C (63.0°F)
Winds 6 kts (3.1 m/s, 6.9 mph) North (10°)
Visibility10 mi. (16.1 km)
Clouds Ceiling: Broken clouds 11,000 ft. (3,353 m)
Altimeter29.98 in.Hg (1015 mB)
Precip last 3 hoursTrace
Relative humidity81 %
Density altitude856 ft. (261 m)
Sea-level pressure101.5 kPa (1015 mB, 29.98 in.Hg)
Max temp last 6 hours21.7°C (71.1°F)
Min temp last 6 hours19.4°C (66.9°F)
Remarks Automated weather observing station with precipitation discriminator
Pressure falling more quickly
Flight conditions Visual Meteorological Conditions
Raw dataKDCA 160552Z 01006KT 10SM BKN110 21/17 A2998 RMK AO2 SLP152 60000 T02060172 10217 20194 58004
An error has occurred. This application may no longer respond until reloaded. Reload 🗙